sensor_id;sensor_type;location;lat;lon;timestamp;pressure;altitude;pressure_sealevel;temperature;humidity
39949;BME280;29070;48.102;-1.652;2023-06-04T00:00:56;101442.34;;;17.76;54.01
39949;BME280;29070;48.102;-1.652;2023-06-04T00:05:58;101434.25;;;17.71;54.27
39949;BME280;29070;48.102;-1.652;2023-06-04T00:10:58;101432.03;;;17.68;54.51
39949;BME280;29070;48.102;-1.652;2023-06-04T00:15:59;101428.31;;;17.57;54.54
39949;BME280;29070;48.102;-1.652;2023-06-04T00:20:59;101426.41;;;17.46;54.59
39949;BME280;29070;48.102;-1.652;2023-06-04T00:25:59;101431.56;;;17.41;54.74
39949;BME280;29070;48.102;-1.652;2023-06-04T00:31:00;101433.88;;;17.37;54.97
39949;BME280;29070;48.102;-1.652;2023-06-04T00:36:00;101430.47;;;17.30;54.94
39949;BME280;29070;48.102;-1.652;2023-06-04T00:41:01;101433.19;;;17.23;55.14
39949;BME280;29070;48.102;-1.652;2023-06-04T00:46:02;101426.94;;;17.18;55.42
39949;BME280;29070;48.102;-1.652;2023-06-04T00:51:05;101432.53;;;17.09;55.53
39949;BME280;29070;48.102;-1.652;2023-06-04T00:56:06;101424.19;;;17.06;55.64
39949;BME280;29070;48.102;-1.652;2023-06-04T01:01:31;101415.34;;;16.93;55.69
39949;BME280;29070;48.102;-1.652;2023-06-04T01:06:38;101426.03;;;16.87;56.06
39949;BME280;29070;48.102;-1.652;2023-06-04T01:11:39;101428.72;;;16.80;55.76
39949;BME280;29070;48.102;-1.652;2023-06-04T01:16:49;101423.47;;;16.73;56.31
39949;BME280;29070;48.102;-1.652;2023-06-04T01:21:53;101429.22;;;16.70;56.24
39949;BME280;29070;48.102;-1.652;2023-06-04T01:26:55;101421.13;;;16.65;56.12
39949;BME280;29070;48.102;-1.652;2023-06-04T01:31:56;101428.09;;;16.59;56.28
39949;BME280;29070;48.102;-1.652;2023-06-04T01:36:57;101434.25;;;16.53;56.47
39949;BME280;29070;48.102;-1.652;2023-06-04T01:41:57;101431.81;;;16.52;56.77
39949;BME280;29070;48.102;-1.652;2023-06-04T01:46:58;101429.59;;;16.49;56.50
39949;BME280;29070;48.102;-1.652;2023-06-04T01:51:58;101421.50;;;16.44;56.76
39949;BME280;29070;48.102;-1.652;2023-06-04T01:56:58;101426.66;;;16.38;56.72
39949;BME280;29070;48.102;-1.652;2023-06-04T02:01:59;101432.78;;;16.32;56.76
39949;BME280;29070;48.102;-1.652;2023-06-04T02:07:02;101419.84;;;16.24;56.72
39949;BME280;29070;48.102;-1.652;2023-06-04T02:12:03;101423.50;;;16.23;57.13
39949;BME280;29070;48.102;-1.652;2023-06-04T02:17:04;101421.09;;;16.15;56.99
39949;BME280;29070;48.102;-1.652;2023-06-04T02:22:05;101420.94;;;16.10;56.96
39949;BME280;29070;48.102;-1.652;2023-06-04T02:27:06;101424.03;;;16.07;57.01
39949;BME280;29070;48.102;-1.652;2023-06-04T02:32:08;101419.56;;;16.00;56.93
39949;BME280;29070;48.102;-1.652;2023-06-04T02:37:09;101422.06;;;15.95;56.80
39949;BME280;29070;48.102;-1.652;2023-06-04T02:42:09;101420.84;;;15.91;56.82
39949;BME280;29070;48.102;-1.652;2023-06-04T02:47:09;101409.88;;;15.88;56.86
39949;BME280;29070;48.102;-1.652;2023-06-04T02:52:10;101418.09;;;15.79;56.91
39949;BME280;29070;48.102;-1.652;2023-06-04T02:57:10;101416.44;;;15.78;57.20
39949;BME280;29070;48.102;-1.652;2023-06-04T03:02:10;101412.78;;;15.73;57.18
39949;BME280;29070;48.102;-1.652;2023-06-04T03:07:11;101409.97;;;15.68;57.66
39949;BME280;29070;48.102;-1.652;2023-06-04T03:12:11;101409.97;;;15.61;57.63
39949;BME280;29070;48.102;-1.652;2023-06-04T03:17:12;101413.50;;;15.48;57.91
39949;BME280;29070;48.102;-1.652;2023-06-04T03:22:12;101403.19;;;15.40;58.12
39949;BME280;29070;48.102;-1.652;2023-06-04T03:27:13;101405.19;;;15.38;58.19
39949;BME280;29070;48.102;-1.652;2023-06-04T03:32:14;101405.25;;;15.31;58.21
39949;BME280;29070;48.102;-1.652;2023-06-04T03:37:16;101397.53;;;15.23;58.21
39949;BME280;29070;48.102;-1.652;2023-06-04T03:42:17;101397.56;;;15.16;58.68
39949;BME280;29070;48.102;-1.652;2023-06-04T03:47:17;101394.72;;;15.11;58.79
39949;BME280;29070;48.102;-1.652;2023-06-04T03:52:17;101397.19;;;15.06;58.74
39949;BME280;29070;48.102;-1.652;2023-06-04T03:57:18;101398.66;;;14.95;58.90
39949;BME280;29070;48.102;-1.652;2023-06-04T04:02:18;101402.31;;;14.87;59.00
39949;BME280;29070;48.102;-1.652;2023-06-04T04:07:18;101396.03;;;14.82;59.23
39949;BME280;29070;48.102;-1.652;2023-06-04T04:12:19;101403.34;;;14.80;59.44
39949;BME280;29070;48.102;-1.652;2023-06-04T04:17:19;101401.31;;;14.75;59.43
39949;BME280;29070;48.102;-1.652;2023-06-04T04:22:20;101401.75;;;14.72;59.39
39949;BME280;29070;48.102;-1.652;2023-06-04T04:27:20;101408.03;;;14.71;59.45
39949;BME280;29070;48.102;-1.652;2023-06-04T04:32:21;101411.50;;;14.65;59.84
39949;BME280;29070;48.102;-1.652;2023-06-04T04:37:22;101421.66;;;14.61;59.65
39949;BME280;29070;48.102;-1.652;2023-06-04T04:42:23;101419.22;;;14.60;59.72
39949;BME280;29070;48.102;-1.652;2023-06-04T04:47:23;101417.75;;;14.57;59.68
39949;BME280;29070;48.102;-1.652;2023-06-04T04:52:24;101420.84;;;14.54;59.74
39949;BME280;29070;48.102;-1.652;2023-06-04T04:57:24;101422.63;;;14.54;59.81
39949;BME280;29070;48.102;-1.652;2023-06-04T05:02:25;101433.00;;;14.55;59.90
39949;BME280;29070;48.102;-1.652;2023-06-04T05:07:25;101429.75;;;14.53;59.83
39949;BME280;29070;48.102;-1.652;2023-06-04T05:12:26;101430.56;;;14.54;60.07
39949;BME280;29070;48.102;-1.652;2023-06-04T05:17:29;101432.81;;;14.57;60.22
39949;BME280;29070;48.102;-1.652;2023-06-04T05:22:32;101443.00;;;14.60;60.06
39949;BME280;29070;48.102;-1.652;2023-06-04T05:27:32;101445.22;;;14.63;60.18
39949;BME280;29070;48.102;-1.652;2023-06-04T05:32:32;101440.75;;;14.70;60.01
39949;BME280;29070;48.102;-1.652;2023-06-04T05:37:33;101442.97;;;14.73;60.13
39949;BME280;29070;48.102;-1.652;2023-06-04T05:42:34;101438.31;;;14.75;60.00
39949;BME280;29070;48.102;-1.652;2023-06-04T05:47:35;101443.19;;;14.85;59.96
39949;BME280;29070;48.102;-1.652;2023-06-04T05:52:37;101449.69;;;14.96;60.15
39949;BME280;29070;48.102;-1.652;2023-06-04T05:57:37;101448.00;;;15.15;60.06
39949;BME280;29070;48.102;-1.652;2023-06-04T06:02:38;101447.13;;;15.41;59.87
39949;BME280;29070;48.102;-1.652;2023-06-04T06:07:39;101452.72;;;15.64;59.75
39949;BME280;29070;48.102;-1.652;2023-06-04T06:12:39;101453.44;;;15.92;59.50
39949;BME280;29070;48.102;-1.652;2023-06-04T06:17:40;101468.28;;;16.31;59.25
39949;BME280;29070;48.102;-1.652;2023-06-04T06:22:40;101459.28;;;16.57;58.93
39949;BME280;29070;48.102;-1.652;2023-06-04T06:27:41;101459.69;;;16.86;58.59
39949;BME280;29070;48.102;-1.652;2023-06-04T06:32:41;101460.25;;;17.13;57.98
39949;BME280;29070;48.102;-1.652;2023-06-04T06:37:42;101466.88;;;17.41;57.52
39949;BME280;29070;48.102;-1.652;2023-06-04T06:42:48;101460.16;;;18.06;55.97
39949;BME280;29070;48.102;-1.652;2023-06-04T06:47:48;101462.56;;;18.61;55.05
39949;BME280;29070;48.102;-1.652;2023-06-04T06:52:49;101460.13;;;19.19;53.69
39949;BME280;29070;48.102;-1.652;2023-06-04T06:57:49;101450.88;;;19.62;52.80
39949;BME280;29070;48.102;-1.652;2023-06-04T07:02:50;101449.50;;;19.59;52.98
39949;BME280;29070;48.102;-1.652;2023-06-04T07:07:50;101454.94;;;19.53;53.07
39949;BME280;29070;48.102;-1.652;2023-06-04T07:12:52;101451.81;;;19.56;53.15
39949;BME280;29070;48.102;-1.652;2023-06-04T07:17:52;101452.59;;;19.68;52.63
39949;BME280;29070;48.102;-1.652;2023-06-04T07:22:52;101450.81;;;19.86;52.65
39949;BME280;29070;48.102;-1.652;2023-06-04T07:27:53;101460.13;;;20.00;52.08
39949;BME280;29070;48.102;-1.652;2023-06-04T07:32:58;101462.56;;;20.18;52.26
39949;BME280;29070;48.102;-1.652;2023-06-04T07:37:58;101466.63;;;20.38;51.46
39949;BME280;29070;48.102;-1.652;2023-06-04T07:42:58;101465.00;;;20.71;51.33
39949;BME280;29070;48.102;-1.652;2023-06-04T07:47:59;101470.91;;;21.12;50.71
39949;BME280;29070;48.102;-1.652;2023-06-04T07:52:59;101467.72;;;21.54;50.11
39949;BME280;29070;48.102;-1.652;2023-06-04T07:57:59;101471.88;;;21.94;49.39
39949;BME280;29070;48.102;-1.652;2023-06-04T08:03:00;101473.66;;;22.11;48.61
39949;BME280;29070;48.102;-1.652;2023-06-04T08:08:00;101467.94;;;22.29;48.51
39949;BME280;29070;48.102;-1.652;2023-06-04T08:13:01;101463.66;;;22.65;47.89
39949;BME280;29070;48.102;-1.652;2023-06-04T08:18:01;101465.38;;;22.87;47.57
39949;BME280;29070;48.102;-1.652;2023-06-04T08:23:02;101460.38;;;23.01;46.88
39949;BME280;29070;48.102;-1.652;2023-06-04T08:28:02;101463.47;;;23.30;46.53
39949;BME280;29070;48.102;-1.652;2023-06-04T08:33:03;101453.13;;;23.54;45.97
39949;BME280;29070;48.102;-1.652;2023-06-04T08:38:03;101455.31;;;23.78;45.54
39949;BME280;29070;48.102;-1.652;2023-06-04T08:43:04;101446.00;;;24.16;45.03
39949;BME280;29070;48.102;-1.652;2023-06-04T08:48:09;101437.13;;;24.42;44.02
39949;BME280;29070;48.102;-1.652;2023-06-04T08:53:15;101435.78;;;24.60;43.95
39949;BME280;29070;48.102;-1.652;2023-06-04T08:58:15;101434.09;;;24.84;43.76
39949;BME280;29070;48.102;-1.652;2023-06-04T09:03:17;101437.00;;;24.93;42.91
39949;BME280;29070;48.102;-1.652;2023-06-04T09:08:19;101436.38;;;25.17;42.92
39949;BME280;29070;48.102;-1.652;2023-06-04T09:13:22;101435.66;;;25.56;42.13
39949;BME280;29070;48.102;-1.652;2023-06-04T09:18:25;101433.31;;;25.83;41.52
39949;BME280;29070;48.102;-1.652;2023-06-04T09:23:26;101432.19;;;25.95;41.16
39949;BME280;29070;48.102;-1.652;2023-06-04T09:28:29;101420.75;;;26.13;40.49
39949;BME280;29070;48.102;-1.652;2023-06-04T09:33:41;101419.97;;;26.37;39.58
39949;BME280;29070;48.102;-1.652;2023-06-04T09:38:43;101428.78;;;26.72;39.60
39949;BME280;29070;48.102;-1.652;2023-06-04T09:43:44;101417.22;;;26.95;38.64
39949;BME280;29070;48.102;-1.652;2023-06-04T09:48:45;101426.09;;;27.15;39.22
39949;BME280;29070;48.102;-1.652;2023-06-04T09:53:55;101422.59;;;27.38;37.67
39949;BME280;29070;48.102;-1.652;2023-06-04T09:59:00;101420.28;;;27.51;37.35
39949;BME280;29070;48.102;-1.652;2023-06-04T10:04:03;101422.28;;;27.59;37.69
39949;BME280;29070;48.102;-1.652;2023-06-04T10:09:07;101431.25;;;27.73;37.67
39949;BME280;29070;48.102;-1.652;2023-06-04T10:19:18;101413.06;;;27.98;36.71
39949;BME280;29070;48.102;-1.652;2023-06-04T10:24:18;101410.94;;;28.28;36.57
39949;BME280;29070;48.102;-1.652;2023-06-04T10:29:21;101414.81;;;28.55;36.17
39949;BME280;29070;48.102;-1.652;2023-06-04T10:34:23;101419.19;;;28.78;35.75
39949;BME280;29070;48.102;-1.652;2023-06-04T10:39:31;101413.78;;;28.92;34.88
39949;BME280;29070;48.102;-1.652;2023-06-04T10:44:45;101414.78;;;28.82;34.34
39949;BME280;29070;48.102;-1.652;2023-06-04T10:49:46;101427.50;;;28.82;34.17
39949;BME280;29070;48.102;-1.652;2023-06-04T10:54:47;101418.47;;;28.86;34.08
39949;BME280;29070;48.102;-1.652;2023-06-04T10:59:57;101405.16;;;28.90;33.56
39949;BME280;29070;48.102;-1.652;2023-06-04T11:05:03;101413.63;;;29.11;33.11
39949;BME280;29070;48.102;-1.652;2023-06-04T11:10:12;101407.66;;;29.37;33.13
39949;BME280;29070;48.102;-1.652;2023-06-04T11:15:14;101418.63;;;29.32;33.00
39949;BME280;29070;48.102;-1.652;2023-06-04T11:20:18;101401.97;;;29.38;32.94
39949;BME280;29070;48.102;-1.652;2023-06-04T11:25:19;101399.06;;;29.35;32.71
39949;BME280;29070;48.102;-1.652;2023-06-04T11:30:22;101394.00;;;29.56;32.41
39949;BME280;29070;48.102;-1.652;2023-06-04T11:35:23;101393.91;;;29.83;32.04
39949;BME280;29070;48.102;-1.652;2023-06-04T11:40:24;101387.16;;;30.03;31.99
39949;BME280;29070;48.102;-1.652;2023-06-04T11:45:27;101386.59;;;30.24;32.08
39949;BME280;29070;48.102;-1.652;2023-06-04T11:50:30;101386.53;;;30.38;31.38
39949;BME280;29070;48.102;-1.652;2023-06-04T11:55:31;101386.94;;;30.31;31.61
39949;BME280;29070;48.102;-1.652;2023-06-04T12:00:32;101376.22;;;30.49;31.13
39949;BME280;29070;48.102;-1.652;2023-06-04T12:05:32;101379.91;;;30.62;31.05
39949;BME280;29070;48.102;-1.652;2023-06-04T12:10:42;101371.19;;;30.73;30.70
39949;BME280;29070;48.102;-1.652;2023-06-04T12:15:42;101371.19;;;30.73;30.54
39949;BME280;29070;48.102;-1.652;2023-06-04T12:20:43;101377.72;;;30.81;30.38
39949;BME280;29070;48.102;-1.652;2023-06-04T12:25:49;101361.00;;;30.88;30.04
39949;BME280;29070;48.102;-1.652;2023-06-04T12:30:51;101368.03;;;30.97;29.90
39949;BME280;29070;48.102;-1.652;2023-06-04T12:35:51;101370.59;;;31.11;30.03
39949;BME280;29070;48.102;-1.652;2023-06-04T12:40:51;101364.22;;;31.07;29.70
39949;BME280;29070;48.102;-1.652;2023-06-04T12:45:52;101362.16;;;31.04;30.03
39949;BME280;29070;48.102;-1.652;2023-06-04T12:50:52;101364.06;;;31.04;30.14
39949;BME280;29070;48.102;-1.652;2023-06-04T12:55:53;101350.50;;;30.95;29.56
39949;BME280;29070;48.102;-1.652;2023-06-04T13:00:53;101350.50;;;30.95;29.64
39949;BME280;29070;48.102;-1.652;2023-06-04T13:05:53;101344.13;;;31.08;30.06
39949;BME280;29070;48.102;-1.652;2023-06-04T13:10:54;101349.06;;;31.06;29.30
39949;BME280;29070;48.102;-1.652;2023-06-04T13:15:55;101340.28;;;31.01;29.72
39949;BME280;29070;48.102;-1.652;2023-06-04T13:20:55;101341.22;;;30.96;29.55
39949;BME280;29070;48.102;-1.652;2023-06-04T13:25:55;101342.63;;;30.76;29.60
39949;BME280;29070;48.102;-1.652;2023-06-04T13:30:56;101332.44;;;30.90;29.46
39949;BME280;29070;48.102;-1.652;2023-06-04T13:35:56;101333.56;;;30.81;29.29
39949;BME280;29070;48.102;-1.652;2023-06-04T13:40:57;101331.16;;;30.88;29.34
39949;BME280;29070;48.102;-1.652;2023-06-04T13:45:57;101326.75;;;31.09;29.48
39949;BME280;29070;48.102;-1.652;2023-06-04T13:50:57;101307.06;;;31.30;28.92
39949;BME280;29070;48.102;-1.652;2023-06-04T13:55:58;101315.81;;;31.62;28.52
39949;BME280;29070;48.102;-1.652;2023-06-04T14:00:59;101315.34;;;31.60;28.28
39949;BME280;29070;48.102;-1.652;2023-06-04T14:05:59;101311.75;;;31.85;28.44
39949;BME280;29070;48.102;-1.652;2023-06-04T14:11:00;101305.16;;;32.04;27.93
39949;BME280;29070;48.102;-1.652;2023-06-04T14:16:01;101292.84;;;31.98;27.33
39949;BME280;29070;48.102;-1.652;2023-06-04T14:21:02;101295.56;;;32.06;27.37
39949;BME280;29070;48.102;-1.652;2023-06-04T14:26:02;101290.59;;;32.00;26.87
39949;BME280;29070;48.102;-1.652;2023-06-04T14:31:02;101289.97;;;32.03;26.97
39949;BME280;29070;48.102;-1.652;2023-06-04T14:36:03;101281.38;;;31.53;26.61
39949;BME280;29070;48.102;-1.652;2023-06-04T14:41:04;101274.81;;;31.54;26.68
39949;BME280;29070;48.102;-1.652;2023-06-04T14:46:04;101280.03;;;31.77;26.97
39949;BME280;29070;48.102;-1.652;2023-06-04T14:51:04;101283.88;;;31.67;26.57
39949;BME280;29070;48.102;-1.652;2023-06-04T14:56:05;101273.16;;;31.71;26.25
39949;BME280;29070;48.102;-1.652;2023-06-04T15:01:06;101272.69;;;31.69;26.11
39949;BME280;29070;48.102;-1.652;2023-06-04T15:06:08;101273.44;;;31.78;26.17
39949;BME280;29070;48.102;-1.652;2023-06-04T15:11:10;101264.47;;;31.86;25.94
39949;BME280;29070;48.102;-1.652;2023-06-04T15:16:10;101264.66;;;31.81;25.93
39949;BME280;29070;48.102;-1.652;2023-06-04T15:21:10;101269.31;;;31.81;25.93
39949;BME280;29070;48.102;-1.652;2023-06-04T15:26:11;101272.09;;;31.46;25.53
39949;BME280;29070;48.102;-1.652;2023-06-04T15:31:11;101258.63;;;31.20;26.07
39949;BME280;29070;48.102;-1.652;2023-06-04T15:36:12;101260.19;;;31.29;26.10
39949;BME280;29070;48.102;-1.652;2023-06-04T15:41:12;101264.94;;;31.41;26.37
39949;BME280;29070;48.102;-1.652;2023-06-04T15:46:13;101250.56;;;31.49;25.97
39949;BME280;29070;48.102;-1.652;2023-06-04T15:51:13;101257.75;;;31.36;25.73
39949;BME280;29070;48.102;-1.652;2023-06-04T15:56:13;101248.56;;;31.11;25.80
39949;BME280;29070;48.102;-1.652;2023-06-04T16:01:16;101244.91;;;30.72;25.93
39949;BME280;29070;48.102;-1.652;2023-06-04T16:06:16;101251.44;;;30.63;25.86
39949;BME280;29070;48.102;-1.652;2023-06-04T16:11:16;101243.63;;;30.78;26.17
39949;BME280;29070;48.102;-1.652;2023-06-04T16:16:17;101242.69;;;30.92;26.12
39949;BME280;29070;48.102;-1.652;2023-06-04T16:21:17;101254.31;;;30.75;26.30
39949;BME280;29070;48.102;-1.652;2023-06-04T16:26:17;101254.16;;;30.54;26.38
39949;BME280;29070;48.102;-1.652;2023-06-04T16:31:18;101256.34;;;30.34;26.04
39949;BME280;29070;48.102;-1.652;2023-06-04T16:36:18;101235.16;;;30.36;26.63
39949;BME280;29070;48.102;-1.652;2023-06-04T16:41:20;101240.84;;;30.26;26.14
39949;BME280;29070;48.102;-1.652;2023-06-04T16:46:20;101243.22;;;30.19;26.45
39949;BME280;29070;48.102;-1.652;2023-06-04T16:51:20;101245.75;;;30.07;26.44
39949;BME280;29070;48.102;-1.652;2023-06-04T16:56:21;101249.81;;;29.87;26.35
39949;BME280;29070;48.102;-1.652;2023-06-04T17:01:22;101255.22;;;29.87;26.18
39949;BME280;29070;48.102;-1.652;2023-06-04T17:06:22;101259.19;;;29.80;25.99
39949;BME280;29070;48.102;-1.652;2023-06-04T17:11:23;101245.44;;;29.68;26.42
39949;BME280;29070;48.102;-1.652;2023-06-04T17:16:23;101252.28;;;29.65;26.97
39949;BME280;29070;48.102;-1.652;2023-06-04T17:21:25;101244.28;;;29.60;27.09
39949;BME280;29070;48.102;-1.652;2023-06-04T17:26:25;101253.75;;;29.49;26.95
39949;BME280;29070;48.102;-1.652;2023-06-04T17:31:27;101255.91;;;29.38;27.33
39949;BME280;29070;48.102;-1.652;2023-06-04T17:36:27;101264.63;;;29.26;27.30
39949;BME280;29070;48.102;-1.652;2023-06-04T17:41:28;101265.69;;;29.03;27.35
39949;BME280;29070;48.102;-1.652;2023-06-04T17:46:28;101263.84;;;28.89;27.57
39949;BME280;29070;48.102;-1.652;2023-06-04T17:51:29;101260.69;;;28.74;27.76
39949;BME280;29070;48.102;-1.652;2023-06-04T17:56:30;101276.31;;;28.63;28.07
39949;BME280;29070;48.102;-1.652;2023-06-04T18:01:30;101281.91;;;28.52;28.02
39949;BME280;29070;48.102;-1.652;2023-06-04T18:06:31;101283.34;;;28.36;28.43
39949;BME280;29070;48.102;-1.652;2023-06-04T18:11:31;101295.94;;;28.27;28.38
39949;BME280;29070;48.102;-1.652;2023-06-04T18:16:31;101291.44;;;28.08;28.54
39949;BME280;29070;48.102;-1.652;2023-06-04T18:21:32;101298.13;;;27.97;28.94
39949;BME280;29070;48.102;-1.652;2023-06-04T18:26:32;101309.47;;;27.80;29.62
39949;BME280;29070;48.102;-1.652;2023-06-04T18:31:32;101310.03;;;27.63;30.55
39949;BME280;29070;48.102;-1.652;2023-06-04T18:36:33;101326.56;;;27.43;31.91
39949;BME280;29070;48.102;-1.652;2023-06-04T18:41:33;101335.38;;;27.29;32.47
39949;BME280;29070;48.102;-1.652;2023-06-04T18:46:34;101355.75;;;27.16;32.82
39949;BME280;29070;48.102;-1.652;2023-06-04T18:51:34;101354.66;;;26.98;32.92
39949;BME280;29070;48.102;-1.652;2023-06-04T18:56:34;101374.59;;;26.78;33.45
39949;BME280;29070;48.102;-1.652;2023-06-04T19:01:35;101367.41;;;26.44;34.07
39949;BME280;29070;48.102;-1.652;2023-06-04T19:06:35;101369.78;;;26.22;34.39
39949;BME280;29070;48.102;-1.652;2023-06-04T19:11:36;101380.44;;;26.08;35.08
39949;BME280;29070;48.102;-1.652;2023-06-04T19:16:37;101381.81;;;26.00;35.28
39949;BME280;29070;48.102;-1.652;2023-06-04T19:21:37;101397.59;;;25.78;35.62
39949;BME280;29070;48.102;-1.652;2023-06-04T19:26:37;101402.03;;;25.58;36.25
39949;BME280;29070;48.102;-1.652;2023-06-04T19:31:38;101414.25;;;25.40;36.55
39949;BME280;29070;48.102;-1.652;2023-06-04T19:36:38;101406.84;;;25.17;37.23
39949;BME280;29070;48.102;-1.652;2023-06-04T19:41:39;101417.09;;;25.04;37.46
39949;BME280;29070;48.102;-1.652;2023-06-04T19:46:39;101427.38;;;24.87;37.93
39949;BME280;29070;48.102;-1.652;2023-06-04T19:51:40;101421.50;;;24.69;38.18
39949;BME280;29070;48.102;-1.652;2023-06-04T19:56:40;101428.00;;;24.53;38.59
39949;BME280;29070;48.102;-1.652;2023-06-04T20:01:41;101439.81;;;24.36;39.03
39949;BME280;29070;48.102;-1.652;2023-06-04T20:06:43;101441.94;;;24.14;39.16
39949;BME280;29070;48.102;-1.652;2023-06-04T20:11:44;101454.81;;;24.02;39.54
39949;BME280;29070;48.102;-1.652;2023-06-04T20:16:44;101463.91;;;23.80;39.97
39949;BME280;29070;48.102;-1.652;2023-06-04T20:21:45;101458.78;;;23.63;40.32
39949;BME280;29070;48.102;-1.652;2023-06-04T20:26:45;101472.63;;;23.45;40.53
39949;BME280;29070;48.102;-1.652;2023-06-04T20:31:46;101478.75;;;23.30;40.73
39949;BME280;29070;48.102;-1.652;2023-06-04T20:36:46;101483.50;;;23.17;41.20
39949;BME280;29070;48.102;-1.652;2023-06-04T20:41:47;101495.19;;;23.01;41.31
39949;BME280;29070;48.102;-1.652;2023-06-04T20:46:47;101494.53;;;22.83;41.31
39949;BME280;29070;48.102;-1.652;2023-06-04T20:51:48;101503.84;;;22.71;41.77
39949;BME280;29070;48.102;-1.652;2023-06-04T20:56:48;101505.84;;;22.53;41.77
39949;BME280;29070;48.102;-1.652;2023-06-04T21:01:48;101512.22;;;22.47;42.08
39949;BME280;29070;48.102;-1.652;2023-06-04T21:06:49;101517.72;;;22.35;42.09
39949;BME280;29070;48.102;-1.652;2023-06-04T21:11:49;101532.56;;;22.21;42.49
39949;BME280;29070;48.102;-1.652;2023-06-04T21:16:49;101537.81;;;22.11;42.77
39949;BME280;29070;48.102;-1.652;2023-06-04T21:21:50;101537.97;;;21.99;43.19
39949;BME280;29070;48.102;-1.652;2023-06-04T21:26:50;101535.94;;;21.84;43.07
39949;BME280;29070;48.102;-1.652;2023-06-04T21:31:50;101539.28;;;21.74;43.37
39949;BME280;29070;48.102;-1.652;2023-06-04T21:36:51;101553.53;;;21.58;43.34
39949;BME280;29070;48.102;-1.652;2023-06-04T21:41:51;101550.47;;;21.49;43.44
39949;BME280;29070;48.102;-1.652;2023-06-04T21:46:51;101550.81;;;21.36;43.83
39949;BME280;29070;48.102;-1.652;2023-06-04T21:51:52;101553.59;;;21.24;44.01
39949;BME280;29070;48.102;-1.652;2023-06-04T21:56:52;101552.88;;;21.11;43.84
39949;BME280;29070;48.102;-1.652;2023-06-04T22:01:53;101551.84;;;20.95;44.16
39949;BME280;29070;48.102;-1.652;2023-06-04T22:06:53;101562.03;;;20.82;44.42
39949;BME280;29070;48.102;-1.652;2023-06-04T22:11:53;101566.38;;;20.71;44.54
39949;BME280;29070;48.102;-1.652;2023-06-04T22:16:56;101571.53;;;20.61;45.01
39949;BME280;29070;48.102;-1.652;2023-06-04T22:21:56;101571.28;;;20.45;45.15
39949;BME280;29070;48.102;-1.652;2023-06-04T22:26:57;101574.31;;;20.37;45.35
39949;BME280;29070;48.102;-1.652;2023-06-04T22:31:57;101577.63;;;20.27;45.29
39949;BME280;29070;48.102;-1.652;2023-06-04T22:36:57;101581.63;;;20.13;45.55
39949;BME280;29070;48.102;-1.652;2023-06-04T22:41:58;101587.09;;;20.06;45.90
39949;BME280;29070;48.102;-1.652;2023-06-04T22:46:58;101587.94;;;19.95;46.16
39949;BME280;29070;48.102;-1.652;2023-06-04T22:51:59;101600.13;;;19.79;46.37
39949;BME280;29070;48.102;-1.652;2023-06-04T22:56:59;101594.31;;;19.70;46.66
39949;BME280;29070;48.102;-1.652;2023-06-04T23:02:00;101601.28;;;19.59;46.78
39949;BME280;29070;48.102;-1.652;2023-06-04T23:07:00;101594.72;;;19.50;47.05
39949;BME280;29070;48.102;-1.652;2023-06-04T23:12:01;101596.44;;;19.45;47.27
39949;BME280;29070;48.102;-1.652;2023-06-04T23:17:01;101607.66;;;19.35;47.34
39949;BME280;29070;48.102;-1.652;2023-06-04T23:22:02;101604.09;;;19.29;47.67
39949;BME280;29070;48.102;-1.652;2023-06-04T23:27:02;101600.59;;;19.17;47.88
39949;BME280;29070;48.102;-1.652;2023-06-04T23:32:03;101602.00;;;19.08;47.97
39949;BME280;29070;48.102;-1.652;2023-06-04T23:37:03;101593.31;;;19.00;48.30
39949;BME280;29070;48.102;-1.652;2023-06-04T23:42:04;101592.03;;;18.91;48.49
39949;BME280;29070;48.102;-1.652;2023-06-04T23:47:05;101586.06;;;18.77;48.80
39949;BME280;29070;48.102;-1.652;2023-06-04T23:52:05;101589.88;;;18.70;49.06
39949;BME280;29070;48.102;-1.652;2023-06-04T23:57:05;101580.59;;;18.60;49.13
